createdAt,value
2022-11-21T00:04:18.797Z,0.70
2022-11-21T00:09:10.914Z,0.70
2022-11-21T00:14:03.389Z,0.80
2022-11-21T00:18:55.525Z,0.80
2022-11-21T00:23:48.419Z,0.70
2022-11-21T00:28:40.715Z,0.80
2022-11-21T00:33:35.090Z,0.80
2022-11-21T00:38:27.784Z,0.90
2022-11-21T00:43:20.010Z,1.00
2022-11-21T00:48:12.106Z,1.00
2022-11-21T00:53:04.215Z,1.00
2022-11-21T00:57:56.414Z,1.00
2022-11-21T01:02:48.557Z,1.00
2022-11-21T01:07:40.805Z,1.10
2022-11-21T01:12:32.918Z,1.00
2022-11-21T01:17:25.087Z,1.10
2022-11-21T01:22:17.289Z,1.10
2022-11-21T01:27:09.426Z,1.20
2022-11-21T01:32:01.614Z,1.20
2022-11-21T01:36:53.741Z,1.20
2022-11-21T01:41:46.528Z,1.20
2022-11-21T01:46:38.624Z,1.30
2022-11-21T01:51:52.193Z,1.40
2022-11-21T01:57:02.212Z,1.40
2022-11-21T02:08:21.760Z,1.40
2022-11-21T02:13:14.284Z,1.40
2022-11-21T02:18:09.501Z,1.50
2022-11-21T02:23:10.597Z,1.50
2022-11-21T02:28:06.742Z,1.60
2022-11-21T02:32:59.391Z,1.60
2022-11-21T02:37:59.870Z,1.60
2022-11-21T02:43:14.943Z,1.70
2022-11-21T02:48:07.471Z,1.70
2022-11-21T02:53:00.063Z,1.70
2022-11-21T02:57:59.074Z,1.70
2022-11-21T03:02:54.504Z,1.80
2022-11-21T03:07:46.989Z,1.90
2022-11-21T03:12:41.227Z,2.00
2022-11-21T03:17:33.451Z,2.10
2022-11-21T03:22:26.554Z,2.10
2022-11-21T03:27:18.747Z,2.10
2022-11-21T03:32:10.942Z,2.10
2022-11-21T03:37:03.047Z,2.10
2022-11-21T03:41:55.541Z,2.20
2022-11-21T03:46:48.867Z,2.20
2022-11-21T03:51:41.471Z,2.20
2022-11-21T03:56:33.617Z,2.30
2022-11-21T04:01:26.422Z,2.40
2022-11-21T04:06:21.129Z,2.30
2022-11-21T04:11:13.560Z,2.40
2022-11-21T04:16:05.743Z,2.50
2022-11-21T04:21:02.739Z,2.50
2022-11-21T04:25:55.299Z,2.60
2022-11-21T04:30:47.755Z,2.60
2022-11-21T04:35:40.088Z,2.60
2022-11-21T04:40:32.343Z,2.70
2022-11-21T04:45:24.472Z,2.70
2022-11-21T04:50:18.332Z,2.70
2022-11-21T04:55:10.465Z,2.60
2022-11-21T05:00:02.728Z,2.60
2022-11-21T05:04:54.793Z,2.70
2022-11-21T05:09:47.089Z,2.80
2022-11-21T05:14:39.163Z,2.70
2022-11-21T05:19:31.393Z,2.70
2022-11-21T05:24:23.590Z,2.80
2022-11-21T05:29:15.799Z,2.80
2022-11-21T05:34:09.023Z,2.80
2022-11-21T05:39:01.184Z,2.80
2022-11-21T05:43:53.321Z,2.80
2022-11-21T05:48:47.551Z,2.90
2022-11-21T05:53:39.739Z,2.90
2022-11-21T05:58:32.285Z,2.90
2022-11-21T06:03:28.158Z,2.90
2022-11-21T06:08:20.475Z,2.90
2022-11-21T06:13:24.827Z,2.90
2022-11-21T06:18:17.575Z,2.90
2022-11-21T06:23:09.718Z,2.90
2022-11-21T06:28:01.940Z,2.90
2022-11-21T06:32:54.168Z,3.00
2022-11-21T06:37:50.761Z,3.10
2022-11-21T06:42:45.446Z,3.10
2022-11-21T06:47:37.561Z,3.10
2022-11-21T06:52:36.294Z,3.10
2022-11-21T06:57:28.411Z,3.10
2022-11-21T07:02:20.471Z,3.10
2022-11-21T07:07:12.756Z,3.10
2022-11-21T07:12:23.848Z,3.20
2022-11-21T07:17:18.992Z,3.40
2022-11-21T07:22:11.323Z,3.40
2022-11-21T07:27:03.779Z,3.40
2022-11-21T07:31:56.036Z,3.40
2022-11-21T07:36:48.247Z,3.30
2022-11-21T07:41:40.331Z,3.20
2022-11-21T07:46:33.594Z,3.20
2022-11-21T07:51:25.775Z,3.20
2022-11-21T07:56:18.007Z,3.00
2022-11-21T08:01:10.081Z,2.90
2022-11-21T08:06:04.024Z,2.90
2022-11-21T08:10:57.525Z,2.90
2022-11-21T08:15:49.720Z,2.80
2022-11-21T08:20:43.034Z,2.70
2022-11-21T08:25:37.788Z,2.70
2022-11-21T08:30:30.427Z,2.70
2022-11-21T08:35:22.564Z,2.60
2022-11-21T08:40:15.037Z,2.60
2022-11-21T08:45:07.628Z,2.50
2022-11-21T08:50:01.987Z,2.50
2022-11-21T08:54:55.188Z,2.50
2022-11-21T08:59:47.262Z,2.40
2022-11-21T09:04:39.451Z,2.50
2022-11-21T09:09:33.945Z,2.40
2022-11-21T09:14:44.541Z,2.40
2022-11-21T09:19:36.667Z,2.50
2022-11-21T09:24:28.804Z,2.50
2022-11-21T09:29:21.003Z,2.50
2022-11-21T09:34:13.306Z,2.50
2022-11-21T09:39:05.558Z,2.50
2022-11-21T09:44:32.880Z,2.50
2022-11-21T09:49:26.842Z,2.60
2022-11-21T09:54:27.057Z,2.60
2022-11-21T09:59:24.904Z,2.60
2022-11-21T10:04:17.163Z,2.70
2022-11-21T10:09:28.461Z,2.80
2022-11-21T10:14:48.267Z,2.80
2022-11-21T10:19:43.127Z,2.80
2022-11-21T10:24:48.686Z,2.90
2022-11-21T10:30:02.617Z,2.90
2022-11-21T10:35:19.342Z,3.00
2022-11-21T10:40:17.553Z,3.10
2022-11-21T10:45:16.559Z,3.20
2022-11-21T10:50:30.034Z,3.30
2022-11-21T10:55:22.337Z,3.30
2022-11-21T11:00:14.957Z,3.40
2022-11-21T11:05:20.389Z,3.30
2022-11-21T11:10:27.662Z,3.50
2022-11-21T11:15:26.336Z,3.60
2022-11-21T11:20:36.562Z,3.60
2022-11-21T11:25:34.892Z,3.80
2022-11-21T11:30:27.713Z,3.90
2022-11-21T11:35:23.334Z,4.10
2022-11-21T11:40:33.012Z,4.50
2022-11-21T11:46:15.549Z,4.80
2022-11-21T11:51:26.198Z,5.30
2022-11-21T11:56:33.365Z,5.50
2022-11-21T12:02:06.291Z,5.50
2022-11-21T12:12:39.897Z,5.80
2022-11-21T12:17:54.154Z,5.50
2022-11-21T12:22:47.937Z,5.20
2022-11-21T12:27:42.588Z,5.00
2022-11-21T12:32:40.491Z,4.90
2022-11-21T12:37:50.676Z,5.10
2022-11-21T12:42:51.693Z,5.20
2022-11-21T12:48:14.179Z,5.10
2022-11-21T12:53:41.015Z,4.80
2022-11-21T12:58:40.298Z,4.60
2022-11-21T13:03:56.780Z,4.30
2022-11-21T13:08:51.836Z,4.20
2022-11-21T13:13:47.174Z,4.20
2022-11-21T13:18:46.265Z,4.00
2022-11-21T13:23:40.507Z,4.10
2022-11-21T13:28:34.839Z,4.20
2022-11-21T13:33:36.286Z,4.30
2022-11-21T13:38:28.526Z,4.20
2022-11-21T13:43:33.152Z,4.20
2022-11-21T13:48:30.630Z,4.20
2022-11-21T13:53:39.722Z,4.20
2022-11-21T13:58:57.873Z,4.00
2022-11-21T14:04:16.314Z,3.90
2022-11-21T14:09:36.440Z,3.80
2022-11-21T14:14:36.308Z,3.70
2022-11-21T14:19:28.997Z,3.60
2022-11-21T14:24:21.703Z,3.60
2022-11-21T14:29:40.216Z,3.50
2022-11-21T14:34:34.389Z,3.50
2022-11-21T14:39:38.152Z,3.40
2022-11-21T14:44:32.462Z,3.30
2022-11-21T14:49:26.363Z,3.30
2022-11-21T14:54:24.514Z,3.20
2022-11-21T14:59:24.419Z,3.00
2022-11-21T15:04:24.454Z,3.10
2022-11-21T15:14:38.095Z,2.90
2022-11-21T15:19:32.831Z,2.90
2022-11-21T15:24:42.704Z,2.80
2022-11-21T15:29:35.084Z,2.70
2022-11-21T15:34:35.336Z,2.70
2022-11-21T15:39:28.268Z,2.60
2022-11-21T15:44:22.329Z,2.60
2022-11-21T15:54:27.549Z,2.60
2022-11-21T15:59:21.351Z,2.60
2022-11-21T16:04:13.511Z,2.50
2022-11-21T16:09:05.894Z,2.50
2022-11-21T16:14:03.062Z,2.40
2022-11-21T16:18:56.756Z,2.50
2022-11-21T16:23:49.092Z,2.60
2022-11-21T16:28:42.007Z,2.50
2022-11-21T16:33:37.758Z,2.50
2022-11-21T16:38:32.179Z,2.50
2022-11-21T16:43:25.030Z,2.50
2022-11-21T16:48:17.335Z,2.40
2022-11-21T16:53:09.462Z,2.50
2022-11-21T16:58:02.429Z,2.50
2022-11-21T17:02:54.836Z,2.60
2022-11-21T17:07:47.359Z,2.60
2022-11-21T17:12:41.217Z,2.60
2022-11-21T17:17:33.390Z,2.60
2022-11-21T17:22:25.720Z,2.60
2022-11-21T17:27:17.791Z,2.60
2022-11-21T17:32:09.917Z,2.60
2022-11-21T17:37:02.110Z,2.60
2022-11-21T17:41:54.445Z,2.60
2022-11-21T17:46:47.034Z,2.60
2022-11-21T17:51:40.808Z,2.60
2022-11-21T17:56:35.119Z,2.70
2022-11-21T18:01:27.968Z,2.60
2022-11-21T18:06:20.380Z,2.50
2022-11-21T18:11:18.453Z,2.20
2022-11-21T18:16:16.149Z,1.80
2022-11-21T18:21:19.808Z,1.50
2022-11-21T18:26:14.698Z,1.30
2022-11-21T18:31:08.234Z,1.20
2022-11-21T18:36:04.769Z,1.00
2022-11-21T18:41:06.076Z,1.10
2022-11-21T18:46:09.468Z,1.00
2022-11-21T18:51:06.593Z,0.90
2022-11-21T18:56:03.727Z,0.70
2022-11-21T19:01:06.354Z,0.70
2022-11-21T19:05:59.105Z,0.50
2022-11-21T19:10:51.934Z,0.40
2022-11-21T19:15:44.809Z,0.30
2022-11-21T19:20:38.222Z,0.30
2022-11-21T19:25:35.216Z,0.30
2022-11-21T19:30:29.914Z,0.20
2022-11-21T19:36:18.079Z,0.20
2022-11-21T19:42:26.549Z,0.10
2022-11-21T19:48:34.775Z,0.00
2022-11-21T19:54:43.214Z,-0.10
2022-11-21T20:00:50.341Z,-0.20
2022-11-21T20:06:56.907Z,-0.20
2022-11-21T20:13:05.199Z,-0.20
2022-11-21T20:19:12.915Z,-0.40
2022-11-21T20:25:21.172Z,-0.50
2022-11-21T20:31:28.206Z,-0.50
2022-11-21T20:37:36.595Z,-0.50
2022-11-21T20:50:10.329Z,-0.50
2022-11-21T20:56:17.775Z,-0.60
2022-11-21T21:02:25.981Z,-0.50
2022-11-21T21:08:34.146Z,-0.50
2022-11-21T21:14:41.036Z,-0.50
2022-11-21T21:21:15.028Z,-0.50
2022-11-21T21:27:16.558Z,-0.20
2022-11-21T21:32:27.544Z,-0.30
2022-11-21T21:37:19.712Z,-0.50
2022-11-21T21:42:14.067Z,-0.50
2022-11-21T21:47:07.179Z,-0.60
2022-11-21T21:52:00.601Z,-0.50
2022-11-21T21:56:54.120Z,-0.40
2022-11-21T22:01:46.352Z,-0.50
2022-11-21T22:06:38.653Z,-0.50
2022-11-21T22:11:32.697Z,-0.40
2022-11-21T22:16:25.529Z,-0.40
2022-11-21T22:21:34.947Z,-0.40
2022-11-21T22:26:27.089Z,-0.30
2022-11-21T22:31:19.284Z,-0.30
2022-11-21T22:36:16.519Z,0.10
2022-11-21T22:41:14.852Z,0.60
2022-11-21T22:46:07.501Z,0.90
2022-11-21T22:50:59.628Z,1.10
2022-11-21T22:56:03.657Z,1.00
2022-11-21T23:01:04.340Z,0.90
2022-11-21T23:06:11.332Z,1.20
2022-11-21T23:11:05.704Z,1.30
2022-11-21T23:15:58.282Z,1.40
2022-11-21T23:20:50.679Z,1.90
2022-11-21T23:25:42.778Z,2.30
2022-11-21T23:30:34.908Z,2.50
2022-11-21T23:35:27.092Z,2.80
2022-11-21T23:40:19.216Z,2.90
2022-11-21T23:45:11.433Z,3.10
2022-11-21T23:50:05.264Z,3.00
2022-11-21T23:54:57.650Z,3.00
2022-11-21T23:59:50.162Z,2.80
